createdAt,value
2023-05-20T00:00:16.167Z,100870.36
2023-05-20T00:01:19.553Z,100870.59
2023-05-20T00:02:22.903Z,100871.45
2023-05-20T00:03:25.577Z,100867.37
2023-05-20T00:04:30.783Z,100866.45
2023-05-20T00:05:33.897Z,100870.72
2023-05-20T00:06:37.167Z,100867.05
2023-05-20T00:07:43.823Z,100861.81
2023-05-20T00:08:47.241Z,100867.37
2023-05-20T00:09:55.183Z,100867.50
2023-05-20T00:10:59.988Z,100863.84
2023-05-20T00:12:04.127Z,100860.71
2023-05-20T00:13:07.763Z,100853.84
2023-05-20T00:14:10.724Z,100860.55
2023-05-20T00:15:17.044Z,100853.66
2023-05-20T00:16:23.440Z,100860.16
2023-05-20T00:17:30.400Z,100851.48
2023-05-20T00:18:34.027Z,100855.62
2023-05-20T00:19:37.117Z,100856.34
2023-05-20T00:20:39.889Z,100849.88
2023-05-20T00:21:44.630Z,100849.02
2023-05-20T00:22:48.144Z,100849.89
2023-05-20T00:23:51.597Z,100853.34
2023-05-20T00:24:54.546Z,100854.41
2023-05-20T00:26:00.455Z,100851.23
2023-05-20T00:27:03.531Z,100855.17
2023-05-20T00:28:07.448Z,100848.68
2023-05-20T00:29:11.940Z,100850.02
2023-05-20T00:30:14.401Z,100854.16
2023-05-20T00:31:18.176Z,100856.23
2023-05-20T00:32:20.756Z,100853.67
2023-05-20T00:33:25.293Z,100850.87
2023-05-20T00:34:28.699Z,100853.29
2023-05-20T00:35:31.663Z,100850.00
2023-05-20T00:36:35.068Z,100851.83
2023-05-20T00:37:39.310Z,100845.49
2023-05-20T00:38:43.801Z,100854.14
2023-05-20T00:39:47.989Z,100854.88
2023-05-20T00:40:51.726Z,100853.41
2023-05-20T00:41:54.004Z,100855.37
2023-05-20T00:42:57.567Z,100845.97
2023-05-20T00:44:00.596Z,100841.94
2023-05-20T00:45:04.362Z,100850.30
2023-05-20T00:46:12.366Z,100851.69
2023-05-20T00:47:17.851Z,100855.19
2023-05-20T00:48:22.619Z,100847.63
2023-05-20T00:49:26.009Z,100848.83
2023-05-20T00:50:29.409Z,100855.42
2023-05-20T00:51:33.226Z,100847.50
2023-05-20T00:52:37.486Z,100847.97
2023-05-20T00:53:43.380Z,100855.42
2023-05-20T00:54:47.410Z,100862.27
2023-05-20T00:55:51.110Z,100855.84
2023-05-20T00:56:55.676Z,100862.80
2023-05-20T00:57:59.488Z,100858.16
2023-05-20T00:59:03.400Z,100854.22
2023-05-20T01:00:08.627Z,100853.84
2023-05-20T01:01:12.114Z,100847.37
2023-05-20T01:02:14.600Z,100845.04
2023-05-20T01:03:17.597Z,100855.19
2023-05-20T01:04:22.282Z,100857.87
2023-05-20T01:05:26.424Z,100849.20
2023-05-20T01:06:30.084Z,100847.50
2023-05-20T01:07:32.697Z,100844.69
2023-05-20T01:08:36.404Z,100852.08
2023-05-20T01:09:43.251Z,100845.89
2023-05-20T01:10:49.020Z,100844.31
2023-05-20T01:11:54.464Z,100843.58
2023-05-20T01:12:58.929Z,100841.50
2023-05-20T01:14:03.435Z,100842.48
2023-05-20T01:15:08.670Z,100841.41
2023-05-20T01:16:13.859Z,100836.29
2023-05-20T01:17:19.377Z,100835.44
2023-05-20T01:18:27.399Z,100844.09
2023-05-20T01:19:39.032Z,100842.26
2023-05-20T01:20:42.531Z,100830.95
2023-05-20T01:21:46.584Z,100841.34
2023-05-20T01:22:51.313Z,100835.78
2023-05-20T01:23:54.654Z,100843.20
2023-05-20T01:24:58.111Z,100838.03
2023-05-20T01:26:03.279Z,100841.19
2023-05-20T01:27:08.375Z,100837.52
2023-05-20T01:28:14.160Z,100844.91
2023-05-20T01:29:19.233Z,100833.86
2023-05-20T01:30:23.374Z,100836.83
2023-05-20T01:31:28.782Z,100833.30
2023-05-20T01:32:41.369Z,100832.50
2023-05-20T01:33:48.414Z,100836.41
2023-05-20T01:34:53.658Z,100836.16
2023-05-20T01:35:59.120Z,100844.46
2023-05-20T01:37:04.556Z,100839.58
2023-05-20T01:38:07.239Z,100834.74
2023-05-20T01:39:12.198Z,100841.78
2023-05-20T01:40:16.727Z,100833.23
2023-05-20T01:41:20.506Z,100838.34
2023-05-20T01:42:27.823Z,100839.28
2023-05-20T01:43:31.622Z,100845.49
2023-05-20T01:44:36.784Z,100835.17
2023-05-20T01:45:42.114Z,100835.51
2023-05-20T01:46:54.436Z,100830.88
2023-05-20T01:47:58.747Z,100837.07
2023-05-20T01:49:04.214Z,100838.30
2023-05-20T01:50:08.903Z,100841.72
2023-05-20T01:51:12.618Z,100843.80
2023-05-20T01:52:16.681Z,100842.22
2023-05-20T01:53:24.619Z,100838.56
2023-05-20T01:54:28.109Z,100842.95
2023-05-20T01:55:31.246Z,100843.55
2023-05-20T01:56:34.501Z,100840.63
2023-05-20T01:57:39.007Z,100844.14
2023-05-20T01:58:42.442Z,100844.39
2023-05-20T01:59:48.043Z,100848.17
2023-05-20T02:00:50.650Z,100846.23
2023-05-20T02:01:56.429Z,100851.59
2023-05-20T02:02:59.945Z,100850.50
2023-05-20T02:04:03.523Z,100852.23
2023-05-20T02:05:06.814Z,100848.67
2023-05-20T02:06:11.623Z,100855.49
2023-05-20T02:07:20.806Z,100858.66
2023-05-20T02:08:23.693Z,100851.52
2023-05-20T02:09:27.460Z,100847.09
2023-05-20T02:10:30.401Z,100848.42
2023-05-20T02:11:34.800Z,100844.99
2023-05-20T02:12:38.454Z,100850.41
2023-05-20T02:13:45.187Z,100844.19
2023-05-20T02:14:48.896Z,100850.73
2023-05-20T02:15:51.839Z,100841.94
2023-05-20T02:18:09.400Z,100844.21
2023-05-20T02:19:13.309Z,100848.53
2023-05-20T02:20:16.487Z,100852.82
2023-05-20T02:21:21.129Z,100850.02
2023-05-20T02:22:25.458Z,100856.63
2023-05-20T02:23:29.680Z,100852.33
2023-05-20T02:24:35.185Z,100854.52
2023-05-20T02:25:38.382Z,100851.94
2023-05-20T02:26:43.229Z,100850.23
2023-05-20T02:27:46.848Z,100857.80
2023-05-20T02:28:52.332Z,100857.69
2023-05-20T02:29:58.353Z,100860.37
2023-05-20T02:31:01.387Z,100859.15
2023-05-20T02:32:07.869Z,100859.51
2023-05-20T02:33:11.973Z,100860.50
2023-05-20T02:34:16.810Z,100856.34
2023-05-20T02:35:22.245Z,100865.98
2023-05-20T02:36:25.783Z,100864.52
2023-05-20T02:37:29.119Z,100853.23
2023-05-20T02:38:33.181Z,100860.36
2023-05-20T02:39:36.673Z,100860.11
2023-05-20T02:40:40.086Z,100857.55
2023-05-20T02:41:44.762Z,100861.58
2023-05-20T02:42:49.670Z,100859.98
2023-05-20T02:43:54.149Z,100858.66
2023-05-20T02:44:59.728Z,100860.16
2023-05-20T02:46:06.336Z,100858.78
2023-05-20T02:47:09.992Z,100859.03
2023-05-20T02:48:13.561Z,100861.34
2023-05-20T02:49:18.571Z,100851.46
2023-05-20T02:50:24.349Z,100857.30
2023-05-20T02:51:27.462Z,100868.03
2023-05-20T02:52:31.306Z,100868.54
2023-05-20T02:53:35.858Z,100861.39
2023-05-20T02:54:39.541Z,100862.56
2023-05-20T02:55:43.148Z,100865.86
2023-05-20T02:56:46.655Z,100874.50
2023-05-20T02:57:49.953Z,100865.10
2023-05-20T02:58:53.654Z,100872.14
2023-05-20T02:59:57.789Z,100880.06
2023-05-20T03:01:03.107Z,100873.84
2023-05-20T03:02:09.043Z,100873.52
2023-05-20T03:03:13.231Z,100868.76
2023-05-20T03:04:16.821Z,100872.74
2023-05-20T03:05:20.645Z,100870.29
2023-05-20T03:06:23.428Z,100874.67
2023-05-20T03:07:27.036Z,100867.55
2023-05-20T03:08:30.558Z,100872.00
2023-05-20T03:09:34.557Z,100881.34
2023-05-20T03:10:37.490Z,100880.34
2023-05-20T03:11:42.548Z,100872.24
2023-05-20T03:12:46.015Z,100875.05
2023-05-20T03:13:48.788Z,100874.23
2023-05-20T03:14:55.365Z,100874.74
2023-05-20T03:15:58.883Z,100875.41
2023-05-20T03:17:02.807Z,100883.90
2023-05-20T03:18:07.600Z,100882.29
2023-05-20T03:19:11.958Z,100886.61
2023-05-20T03:20:17.442Z,100881.25
2023-05-20T03:21:21.155Z,100881.81
2023-05-20T03:22:25.037Z,100887.56
2023-05-20T03:23:31.811Z,100885.83
2023-05-20T03:24:39.916Z,100894.06
2023-05-20T03:25:43.846Z,100894.32
2023-05-20T03:26:49.879Z,100893.34
2023-05-20T03:27:53.667Z,100896.81
2023-05-20T03:29:00.191Z,100897.16
2023-05-20T03:30:04.339Z,100908.37
2023-05-20T03:31:08.277Z,100896.48
2023-05-20T03:32:11.973Z,100900.91
2023-05-20T03:33:16.118Z,100900.34
2023-05-20T03:34:18.984Z,100905.48
2023-05-20T03:35:23.013Z,100903.82
2023-05-20T03:36:26.819Z,100906.49
2023-05-20T03:37:31.696Z,100905.48
2023-05-20T03:38:35.509Z,100900.63
2023-05-20T03:39:39.757Z,100900.02
2023-05-20T03:40:43.144Z,100898.91
2023-05-20T03:41:46.970Z,100902.33
2023-05-20T03:42:52.406Z,100896.57
2023-05-20T03:43:56.985Z,100895.07
2023-05-20T03:45:00.676Z,100902.02
2023-05-20T03:46:06.216Z,100898.61
2023-05-20T03:47:10.819Z,100897.94
2023-05-20T03:48:17.932Z,100897.50
2023-05-20T03:49:21.004Z,100896.83
2023-05-20T03:50:24.423Z,100898.08
2023-05-20T03:51:28.333Z,100896.25
2023-05-20T03:52:35.282Z,100898.73
2023-05-20T03:53:42.514Z,100900.41
2023-05-20T03:54:47.455Z,100907.14
2023-05-20T03:55:52.071Z,100903.31
2023-05-20T03:56:58.449Z,100897.09
2023-05-20T03:58:03.169Z,100897.95
2023-05-20T03:59:06.768Z,100896.12
2023-05-20T04:00:12.685Z,100901.87
2023-05-20T04:01:18.847Z,100903.28
2023-05-20T04:02:23.609Z,100898.59
2023-05-20T04:03:30.330Z,100899.97
2023-05-20T04:04:34.193Z,100905.97
2023-05-20T04:05:37.932Z,100895.77
2023-05-20T04:06:45.186Z,100904.11
2023-05-20T04:07:49.108Z,100902.70
2023-05-20T04:08:53.764Z,100895.64
2023-05-20T04:09:56.962Z,100908.67
2023-05-20T04:11:00.305Z,100895.38
2023-05-20T04:12:04.322Z,100909.22
2023-05-20T04:13:07.976Z,100894.98
2023-05-20T04:14:13.074Z,100892.64
2023-05-20T04:15:17.747Z,100899.43
2023-05-20T04:16:30.166Z,100900.02
2023-05-20T04:17:33.391Z,100898.41
2023-05-20T04:18:40.281Z,100898.99
2023-05-20T04:19:45.833Z,100904.91
2023-05-20T04:20:49.646Z,100905.89
2023-05-20T04:21:52.543Z,100912.77
2023-05-20T04:22:57.185Z,100908.70
2023-05-20T04:24:00.677Z,100911.16
2023-05-20T04:25:06.720Z,100918.02
2023-05-20T04:26:10.195Z,100924.91
2023-05-20T04:27:14.126Z,100919.62
2023-05-20T04:28:20.755Z,100930.31
2023-05-20T04:29:24.689Z,100940.59
2023-05-20T04:30:28.086Z,100943.02
2023-05-20T04:31:32.884Z,100950.81
2023-05-20T04:32:36.699Z,100956.48
2023-05-20T04:33:40.172Z,100947.50
2023-05-20T04:34:44.815Z,100956.94
2023-05-20T04:35:48.433Z,100958.66
2023-05-20T04:36:55.679Z,100957.62
2023-05-20T04:37:58.881Z,100962.04
2023-05-20T04:39:02.012Z,100963.15
2023-05-20T04:40:11.113Z,100958.98
2023-05-20T04:41:16.729Z,100961.43
2023-05-20T04:42:22.461Z,100965.47
2023-05-20T04:43:27.973Z,100967.70
2023-05-20T04:44:31.504Z,100963.11
2023-05-20T04:45:36.992Z,100969.18
2023-05-20T04:46:40.682Z,100974.21
2023-05-20T04:47:43.753Z,100974.77
2023-05-20T04:48:50.003Z,100976.89
2023-05-20T04:49:56.780Z,100983.00
2023-05-20T04:51:00.794Z,100987.25
2023-05-20T04:52:07.537Z,100995.27
2023-05-20T04:53:10.718Z,100991.37
2023-05-20T04:54:14.964Z,100993.97
2023-05-20T04:55:21.863Z,100993.30
2023-05-20T04:56:27.833Z,100996.66
2023-05-20T04:57:32.058Z,100991.00
2023-05-20T04:58:36.092Z,101008.35
2023-05-20T04:59:38.546Z,101006.25
2023-05-20T05:00:44.141Z,100996.03
2023-05-20T05:01:47.705Z,100998.83
2023-05-20T05:02:51.271Z,101002.98
2023-05-20T05:03:56.129Z,101005.91
2023-05-20T05:05:00.063Z,101004.17
2023-05-20T05:06:03.650Z,101008.31
2023-05-20T05:07:07.158Z,101011.59
2023-05-20T05:08:12.684Z,101014.91
2023-05-20T05:09:20.272Z,101018.61
2023-05-20T05:10:29.161Z,101020.50
2023-05-20T05:11:32.774Z,101005.83
2023-05-20T05:12:37.003Z,101013.05
2023-05-20T05:13:40.948Z,101013.63
2023-05-20T05:14:43.391Z,101011.56
2023-05-20T05:15:46.397Z,101006.02
2023-05-20T05:16:54.082Z,101014.06
2023-05-20T05:17:57.910Z,101020.89
2023-05-20T05:19:03.638Z,101007.91
2023-05-20T05:20:09.948Z,101020.98
2023-05-20T05:21:13.631Z,101023.95
2023-05-20T05:22:21.320Z,101016.37
2023-05-20T05:23:26.582Z,101020.16
2023-05-20T05:24:30.815Z,101017.39
2023-05-20T05:25:34.600Z,101008.31
2023-05-20T05:26:38.248Z,101024.87
2023-05-20T05:27:41.848Z,101011.61
2023-05-20T05:28:46.088Z,101009.17
2023-05-20T05:29:49.900Z,101009.38
2023-05-20T05:30:58.474Z,101013.98
2023-05-20T05:32:02.482Z,101015.61
2023-05-20T05:33:08.913Z,101020.16
2023-05-20T05:34:12.590Z,101030.41
2023-05-20T05:35:16.103Z,101030.20
2023-05-20T05:36:19.704Z,101032.74
2023-05-20T05:37:23.166Z,101024.58
2023-05-20T05:38:27.773Z,101025.21
2023-05-20T05:39:31.476Z,101036.27
2023-05-20T05:40:35.296Z,101037.68
2023-05-20T05:41:39.735Z,101042.86
2023-05-20T05:42:43.973Z,101039.70
2023-05-20T05:43:46.648Z,101042.92
2023-05-20T05:44:50.798Z,101045.19
2023-05-20T05:45:54.801Z,101030.46
2023-05-20T05:46:58.444Z,101029.41
2023-05-20T05:48:03.320Z,101031.73
2023-05-20T05:49:08.552Z,101040.55
2023-05-20T05:50:13.773Z,101038.41
2023-05-20T05:51:17.630Z,101039.91
2023-05-20T05:52:22.461Z,101033.78
2023-05-20T05:53:25.537Z,101035.61
2023-05-20T05:54:29.143Z,101039.27
2023-05-20T05:55:35.270Z,101039.91
2023-05-20T05:56:39.352Z,101035.31
2023-05-20T05:57:43.790Z,101035.70
2023-05-20T05:58:49.073Z,101040.28
2023-05-20T05:59:57.233Z,101037.49
2023-05-20T06:01:01.226Z,101040.89
2023-05-20T06:02:04.684Z,101040.01
2023-05-20T06:03:07.257Z,101040.27
2023-05-20T06:04:11.946Z,101035.59
2023-05-20T06:05:15.557Z,101037.17
2023-05-20T06:06:19.153Z,101030.66
2023-05-20T06:07:26.587Z,101034.05
2023-05-20T06:08:31.273Z,101024.80
2023-05-20T06:09:36.353Z,101033.20
2023-05-20T06:10:41.339Z,101037.45
2023-05-20T06:11:47.229Z,101045.20
2023-05-20T06:12:53.357Z,101038.82
2023-05-20T06:13:56.847Z,101030.03
2023-05-20T06:15:01.580Z,101039.38
2023-05-20T06:16:06.044Z,101031.56
2023-05-20T06:17:09.654Z,101037.02
2023-05-20T06:18:13.615Z,101036.42
2023-05-20T06:19:16.114Z,101036.97
2023-05-20T06:20:20.082Z,101048.13
2023-05-20T06:21:24.919Z,101046.89
2023-05-20T06:22:28.339Z,101050.72
2023-05-20T06:23:31.254Z,101038.77
2023-05-20T06:24:35.987Z,101040.13
2023-05-20T06:25:39.769Z,101046.06
2023-05-20T06:26:43.180Z,101030.27
2023-05-20T06:27:50.142Z,101041.39
2023-05-20T06:28:55.459Z,101036.16
2023-05-20T06:29:58.089Z,101046.13
2023-05-20T06:31:01.448Z,101047.00
2023-05-20T06:32:07.059Z,101045.22
2023-05-20T06:33:10.167Z,101056.25
2023-05-20T06:34:14.604Z,101038.77
2023-05-20T06:35:18.109Z,101049.88
2023-05-20T06:36:22.580Z,101035.80
2023-05-20T06:37:26.018Z,101051.15
2023-05-20T06:38:31.717Z,101044.75
2023-05-20T06:39:40.284Z,101039.02
2023-05-20T06:40:46.399Z,101031.36
2023-05-20T06:41:51.270Z,101042.45
2023-05-20T06:42:56.865Z,101042.29
2023-05-20T06:44:02.059Z,101040.12
2023-05-20T06:45:07.774Z,101043.79
2023-05-20T06:46:13.394Z,101035.75
2023-05-20T06:47:21.023Z,101045.94
2023-05-20T06:48:26.278Z,101053.59
2023-05-20T06:49:28.961Z,101052.37
2023-05-20T06:50:33.954Z,101056.50
2023-05-20T06:51:38.519Z,101048.53
2023-05-20T06:52:41.252Z,101049.15
2023-05-20T06:53:44.880Z,101048.59
2023-05-20T06:54:48.788Z,101047.00
2023-05-20T06:55:53.956Z,101054.71
2023-05-20T06:56:57.410Z,101040.13
2023-05-20T06:57:59.970Z,101044.94
2023-05-20T06:59:05.508Z,101043.91
2023-05-20T07:00:11.163Z,101048.63
2023-05-20T07:01:18.115Z,101054.41
2023-05-20T07:02:23.060Z,101045.31
2023-05-20T07:03:26.781Z,101053.51
2023-05-20T07:04:30.766Z,101060.97
2023-05-20T07:05:35.129Z,101057.95
2023-05-20T07:06:38.802Z,101042.74
2023-05-20T07:07:42.148Z,101051.00
2023-05-20T07:08:46.363Z,101057.99
2023-05-20T07:09:50.387Z,101046.97
2023-05-20T07:10:55.581Z,101057.06
2023-05-20T07:11:58.328Z,101065.01
2023-05-20T07:13:01.933Z,101062.66
2023-05-20T07:14:07.493Z,101056.64
2023-05-20T07:15:12.467Z,101050.19
2023-05-20T07:16:17.200Z,101055.22
2023-05-20T07:17:22.833Z,101055.58
2023-05-20T07:18:28.458Z,101061.70
2023-05-20T07:19:34.331Z,101053.78
2023-05-20T07:20:37.864Z,101058.23
2023-05-20T07:21:44.291Z,101052.59
2023-05-20T07:22:52.306Z,101048.47
2023-05-20T07:24:00.293Z,101053.69
2023-05-20T07:25:03.792Z,101055.69
2023-05-20T07:26:07.735Z,101054.22
2023-05-20T07:27:13.198Z,101052.80
2023-05-20T07:28:17.752Z,101049.35
2023-05-20T07:29:21.571Z,101051.20
2023-05-20T07:30:24.986Z,101057.56
2023-05-20T07:31:34.456Z,101063.91
2023-05-20T07:32:37.635Z,101066.25
2023-05-20T07:33:45.727Z,101066.43
2023-05-20T07:36:02.025Z,101049.02
2023-05-20T07:37:07.754Z,101044.13
2023-05-20T07:38:12.392Z,101044.55
2023-05-20T07:39:16.170Z,101051.89
2023-05-20T07:40:22.709Z,101043.08
2023-05-20T07:41:28.078Z,101038.16
2023-05-20T07:42:32.040Z,101043.59
2023-05-20T07:43:37.941Z,101044.44
2023-05-20T07:44:47.323Z,101040.84
2023-05-20T07:45:52.764Z,101041.73
2023-05-20T07:46:56.449Z,101053.09
2023-05-20T07:48:03.321Z,101044.16
2023-05-20T07:49:06.110Z,101031.73
2023-05-20T07:50:12.727Z,101035.72
2023-05-20T07:51:18.040Z,101041.18
2023-05-20T07:52:22.934Z,101034.86
2023-05-20T07:53:27.551Z,101022.66
2023-05-20T07:54:31.493Z,101036.55
2023-05-20T07:55:36.920Z,101038.00
2023-05-20T07:56:41.833Z,101030.23
2023-05-20T07:57:46.790Z,101027.41
2023-05-20T07:58:54.799Z,101019.51
2023-05-20T07:59:59.133Z,101026.86
2023-05-20T08:01:04.312Z,101027.50
2023-05-20T08:02:09.421Z,101032.11
2023-05-20T08:03:14.866Z,101025.41
2023-05-20T08:04:20.710Z,101024.70
2023-05-20T08:05:24.391Z,101022.19
2023-05-20T08:06:29.774Z,101028.79
2023-05-20T08:07:35.054Z,101032.50
2023-05-20T08:08:41.689Z,101028.34
2023-05-20T08:09:48.237Z,101029.26
2023-05-20T08:10:56.658Z,101031.05
2023-05-20T08:12:01.306Z,101025.86
2023-05-20T08:13:06.050Z,101029.34
2023-05-20T08:14:09.885Z,101025.67
2023-05-20T08:15:15.198Z,101021.52
2023-05-20T08:16:18.881Z,101028.09
2023-05-20T08:17:23.958Z,101027.89
2023-05-20T08:18:30.348Z,101034.05
2023-05-20T08:19:33.255Z,101029.65
2023-05-20T08:20:37.272Z,101028.69
2023-05-20T08:21:40.354Z,101031.14
2023-05-20T08:22:43.823Z,101029.05
2023-05-20T08:23:48.628Z,101037.21
2023-05-20T08:24:52.543Z,101019.45
2023-05-20T08:25:58.554Z,101028.86
2023-05-20T08:27:02.050Z,101019.88
2023-05-20T08:28:06.297Z,101025.20
2023-05-20T08:29:12.737Z,101027.88
2023-05-20T08:30:16.855Z,101014.03
2023-05-20T08:31:21.766Z,101031.84
2023-05-20T08:32:25.142Z,101030.21
2023-05-20T08:33:30.224Z,101023.37
2023-05-20T08:34:33.496Z,101023.52
2023-05-20T08:35:41.349Z,101025.08
2023-05-20T08:36:45.258Z,101026.71
2023-05-20T08:37:48.806Z,101021.91
2023-05-20T08:38:52.650Z,101028.83
2023-05-20T08:39:57.076Z,101025.66
2023-05-20T08:41:03.721Z,101012.44
2023-05-20T08:42:08.509Z,101028.32
2023-05-20T08:43:11.998Z,101028.00
2023-05-20T08:44:15.900Z,101018.04
2023-05-20T08:45:20.738Z,101010.95
2023-05-20T08:46:24.380Z,101017.73
2023-05-20T08:47:31.250Z,101010.03
2023-05-20T08:48:38.061Z,101019.94
2023-05-20T08:49:42.951Z,101030.92
2023-05-20T08:50:48.594Z,101029.03
2023-05-20T08:51:50.971Z,101032.00
2023-05-20T08:52:56.608Z,101020.18
2023-05-20T08:54:02.496Z,101018.25
2023-05-20T08:55:07.922Z,101022.84
2023-05-20T08:56:13.143Z,101019.36
2023-05-20T08:57:23.672Z,101019.70
2023-05-20T08:58:30.134Z,101025.19
2023-05-20T08:59:33.465Z,101020.11
2023-05-20T09:00:37.713Z,101018.86
2023-05-20T09:01:43.196Z,101024.75
2023-05-20T09:02:45.737Z,101016.76
2023-05-20T09:03:49.575Z,101030.19
2023-05-20T09:04:55.922Z,101026.32
2023-05-20T09:06:07.674Z,101025.65
2023-05-20T09:07:14.207Z,101028.73
2023-05-20T09:08:18.553Z,101025.96
2023-05-20T09:09:23.086Z,101016.16
2023-05-20T09:10:28.062Z,101032.36
2023-05-20T09:11:31.567Z,101034.50
2023-05-20T09:12:34.913Z,101025.75
2023-05-20T09:13:39.960Z,101022.23
2023-05-20T09:14:46.134Z,101018.59
2023-05-20T09:15:49.561Z,101023.84
2023-05-20T09:16:53.274Z,101032.98
2023-05-20T09:18:07.726Z,101036.08
2023-05-20T09:20:26.395Z,101035.27
2023-05-20T09:21:30.258Z,101044.03
2023-05-20T09:22:32.720Z,101036.08
2023-05-20T09:23:40.034Z,101025.09
2023-05-20T09:24:43.581Z,101045.86
2023-05-20T09:25:47.827Z,101039.19
2023-05-20T09:26:54.455Z,101034.49
2023-05-20T09:28:06.022Z,101039.80
2023-05-20T09:29:09.598Z,101044.41
2023-05-20T09:30:14.776Z,101043.80
2023-05-20T09:31:18.099Z,101032.00
2023-05-20T09:32:25.392Z,101033.23
2023-05-20T09:33:35.200Z,101047.14
2023-05-20T09:34:39.178Z,101026.47
2023-05-20T09:35:42.571Z,101034.02
2023-05-20T09:36:48.787Z,101031.27
2023-05-20T09:37:53.965Z,101032.80
2023-05-20T09:39:03.711Z,101034.41
2023-05-20T09:40:10.100Z,101028.15
2023-05-20T09:41:17.878Z,101019.43
2023-05-20T09:42:27.417Z,101023.81
2023-05-20T09:43:31.336Z,101031.08
2023-05-20T09:44:34.025Z,101020.02
2023-05-20T09:45:39.520Z,101027.20
2023-05-20T09:46:43.303Z,101024.66
2023-05-20T09:47:48.097Z,101029.98
2023-05-20T09:48:50.736Z,101030.69
2023-05-20T09:49:54.870Z,101029.80
2023-05-20T09:50:58.689Z,101022.20
2023-05-20T09:52:03.236Z,101014.69
2023-05-20T09:53:07.368Z,101013.67
2023-05-20T09:54:12.753Z,101023.58
2023-05-20T09:55:17.409Z,101013.89
2023-05-20T09:56:22.086Z,101022.08
2023-05-20T09:57:27.122Z,101010.17
2023-05-20T09:58:30.535Z,101026.27
2023-05-20T09:59:35.442Z,101031.30
2023-05-20T10:00:39.222Z,101025.56
2023-05-20T10:01:46.125Z,101012.17
2023-05-20T10:02:54.437Z,101021.97
2023-05-20T10:03:58.844Z,101019.72
2023-05-20T10:05:06.502Z,101020.47
2023-05-20T10:06:18.467Z,101022.26
2023-05-20T10:07:42.319Z,101022.40
2023-05-20T10:08:49.189Z,101024.20
2023-05-20T10:09:53.633Z,101019.48
2023-05-20T10:11:09.010Z,101019.77
2023-05-20T10:12:15.492Z,101017.66
2023-05-20T10:13:23.681Z,101023.52
2023-05-20T10:14:32.243Z,101019.91
2023-05-20T10:15:45.975Z,101011.92
2023-05-20T10:16:57.488Z,101024.47
2023-05-20T10:18:07.013Z,101026.73
2023-05-20T10:19:12.364Z,101029.08
2023-05-20T10:20:16.137Z,101027.39
2023-05-20T10:21:25.712Z,101028.84
2023-05-20T10:22:30.337Z,101028.19
2023-05-20T10:23:34.298Z,101028.59
2023-05-20T10:24:38.691Z,101007.79
2023-05-20T10:25:45.710Z,101019.94
2023-05-20T10:26:53.784Z,101022.52
2023-05-20T10:28:09.621Z,101027.20
2023-05-20T10:29:22.131Z,101032.58
2023-05-20T10:30:25.606Z,101027.86
2023-05-20T10:31:29.123Z,101030.58
2023-05-20T10:32:33.126Z,101029.24
2023-05-20T10:33:41.655Z,101013.18
2023-05-20T10:34:50.671Z,101014.84
2023-05-20T10:35:55.142Z,101013.02
2023-05-20T10:36:59.689Z,101011.78
2023-05-20T10:38:09.917Z,101020.30
2023-05-20T10:39:16.374Z,101010.73
2023-05-20T10:40:21.416Z,101017.59
2023-05-20T10:41:27.186Z,101018.07
2023-05-20T10:42:32.155Z,101009.89
2023-05-20T10:43:35.665Z,101002.63
2023-05-20T10:44:47.210Z,101006.33
2023-05-20T10:45:52.062Z,101004.08
2023-05-20T10:47:24.379Z,101016.01
2023-05-20T10:48:13.151Z,101007.52
2023-05-20T10:49:27.593Z,101005.39
2023-05-20T10:50:32.225Z,101005.41
2023-05-20T10:51:39.657Z,100999.11
2023-05-20T10:52:42.910Z,101003.19
2023-05-20T10:53:47.829Z,100994.34
2023-05-20T10:54:57.708Z,100998.52
2023-05-20T10:56:04.162Z,100992.40
2023-05-20T10:57:10.177Z,101001.95
2023-05-20T10:58:17.726Z,101002.86
2023-05-20T10:59:23.398Z,101006.81
2023-05-20T11:00:27.321Z,101007.75
2023-05-20T11:01:30.248Z,101016.41
2023-05-20T11:02:34.026Z,101002.05
2023-05-20T11:03:38.122Z,100993.31
2023-05-20T11:04:43.398Z,101021.83
2023-05-20T11:05:48.445Z,101010.30
2023-05-20T11:06:54.515Z,101003.29
2023-05-20T11:08:10.672Z,101001.24
2023-05-20T11:09:10.788Z,100999.95
2023-05-20T11:10:14.740Z,101000.38
2023-05-20T11:11:18.360Z,101000.77
2023-05-20T11:12:23.172Z,101005.22
2023-05-20T11:13:27.327Z,100997.42
2023-05-20T11:14:34.540Z,100995.91
2023-05-20T11:15:39.715Z,100997.23
2023-05-20T11:16:43.465Z,100993.37
2023-05-20T11:17:58.748Z,100996.28
2023-05-20T11:19:02.794Z,100998.20
2023-05-20T11:20:06.837Z,100998.33
2023-05-20T11:21:11.175Z,101000.51
2023-05-20T11:22:16.978Z,101004.11
2023-05-20T11:23:21.362Z,100997.00
2023-05-20T11:24:29.292Z,100995.64
2023-05-20T11:25:33.399Z,100986.30
2023-05-20T11:26:36.590Z,100986.22
2023-05-20T11:27:41.864Z,100993.47
2023-05-20T11:28:45.479Z,100995.17
2023-05-20T11:29:52.806Z,101003.67
2023-05-20T11:30:56.710Z,100990.65
2023-05-20T11:32:01.379Z,100993.00
2023-05-20T11:33:05.242Z,100995.55
2023-05-20T11:34:08.689Z,100995.25
2023-05-20T11:35:26.043Z,100999.58
2023-05-20T11:36:30.903Z,100994.14
2023-05-20T11:37:36.972Z,100981.05
2023-05-20T11:38:42.389Z,100985.50
2023-05-20T11:39:45.928Z,100984.25
2023-05-20T11:40:52.952Z,100985.75
2023-05-20T11:41:57.013Z,100985.27
2023-05-20T11:43:01.873Z,100987.19
2023-05-20T11:44:11.889Z,100972.83
2023-05-20T11:45:18.923Z,100980.41
2023-05-20T11:46:23.575Z,100986.44
2023-05-20T11:47:28.381Z,100989.25
2023-05-20T11:48:38.857Z,100970.66
2023-05-20T11:49:42.963Z,100989.72
2023-05-20T11:50:47.483Z,100980.91
2023-05-20T11:51:50.375Z,100972.48
2023-05-20T11:53:00.981Z,100976.56
2023-05-20T11:54:05.101Z,100975.00
2023-05-20T11:55:12.061Z,100968.58
2023-05-20T11:56:14.524Z,100973.97
2023-05-20T11:57:18.136Z,100979.88
2023-05-20T11:58:25.147Z,100974.56
2023-05-20T11:59:28.812Z,100974.15
2023-05-20T12:00:43.069Z,100979.06
2023-05-20T12:01:37.760Z,100970.55
2023-05-20T12:02:41.674Z,100977.14
2023-05-20T12:03:45.430Z,100970.58
2023-05-20T12:04:50.077Z,100977.56
2023-05-20T12:05:54.778Z,100973.14
2023-05-20T12:06:59.071Z,100971.27
2023-05-20T12:08:05.771Z,100973.46
2023-05-20T12:09:11.868Z,100980.11
2023-05-20T12:10:15.540Z,100966.81
2023-05-20T12:11:20.917Z,100966.05
2023-05-20T12:12:25.815Z,100958.00
2023-05-20T12:13:32.613Z,100956.91
2023-05-20T12:14:42.631Z,100965.00
2023-05-20T12:15:47.224Z,100962.98
2023-05-20T12:16:51.193Z,100958.21
2023-05-20T12:17:55.193Z,100967.12
2023-05-20T12:18:59.376Z,100964.09
2023-05-20T12:20:06.633Z,100971.59
2023-05-20T12:21:09.929Z,100958.84
2023-05-20T12:22:14.701Z,100967.30
2023-05-20T12:23:18.883Z,100969.88
2023-05-20T12:24:22.523Z,100966.10
2023-05-20T12:25:27.626Z,100961.64